Flight Track Log - Related Links

Times and Time Zones

All times are in EDT time to prevent confusion due to time zone crossing. See the UAL3776 flight status page for this flight to view local times or setup timezone preferences in your user account.

Time Position Orientation Groundspeed Altitude Reporting Facility
EDT Latitude Longitude Course Direction KTS MPH feet Rate Location/Type
Fri 07:47:52 PM 35.1928 -80.9331 72° East 172 198 1,600  Level Atlanta Center
Fri 07:48:20 PM 35.1708 -80.9314 176° South 167 192 2,700 1,750 Climbing FAA TRACON SMA TRACON (SMA)
Fri 07:48:40 PM 35.1522 -80.9258 166° South 219 252 3,000 1,463 Climbing FAA TRACON SMA TRACON (SMA)
Fri 07:49:01 PM 35.1344 -80.9014 132° Southeast 264 304 3,700 2,400 Climbing FAA TRACON SMA TRACON (SMA)
Fri 07:49:20 PM 35.1308 -80.8742 99° East 264 304 4,600 3,300 Climbing FAA TRACON SMA TRACON (SMA)
Fri 07:49:41 PM 35.1278 -80.8392 96° East 272 313 5,900 3,450 Climbing FAA TRACON SMA TRACON (SMA)
Fri 07:50:00 PM 35.1079 -80.6281 29° Northeast  Level FlightAware Approximate
Fri 07:50:00 PM 35.1256 -80.8103 95° East 276 318 6,900  Level FAA TRACON SMA TRACON (SMA)
Fri 07:50:20 PM 35.1239 -80.7844 95° East 277 319 7,700 1,610 Climbing FAA TRACON SMA TRACON (SMA)
Fri 07:50:41 PM 35.1219 -80.7461 94° East 270 311 8,000 1,800 Climbing FAA TRACON SMA TRACON (SMA)
Fri 07:51:00 PM 35.2032 -80.5644 30° Northeast  Level FlightAware Approximate
Fri 07:51:00 PM 35.1314 -80.7206 66° East 268 308 8,900  Level FAA TRACON SMA TRACON (SMA)
Fri 07:51:21 PM 35.1439 -80.6967 57° Northeast 269 310 9,700 2,550 Climbing FAA TRACON SMA TRACON (SMA)
Fri 07:51:40 PM 35.1600 -80.6661 57° Northeast 281 323 10,600 1,846 Climbing FAA TRACON SMA TRACON (SMA)
Fri 07:52:00 PM 35.2970 -80.4974 30° Northeast  Level FlightAware Approximate
Fri 07:52:00 PM 35.1747 -80.6392 56° Northeast 322 371 10,900  Level FAA TRACON SMA TRACON (SMA)
Fri 07:52:20 PM 35.1892 -80.6111 58° Northeast 312 359 11,700 2,850 Climbing FAA TRACON SMA TRACON (SMA)
Fri 07:52:40 PM 35.2083 -80.5758 56° Northeast 324 373 12,800 2,488 Climbing FAA TRACON SMA TRACON (SMA)
Fri 07:53:00 PM 35.3504 -80.4019 72° East  Level FlightAware Approximate
Fri 07:53:01 PM 35.2219 -80.5497 57° Northeast 327 376 13,400  Level FAA TRACON SMA TRACON (SMA)
Fri 07:53:20 PM 35.2400 -80.5178 55° Northeast 340 391 14,200 1,950 Climbing FAA TRACON SMA TRACON (SMA)
Fri 07:53:41 PM 35.2600 -80.4797 57° Northeast 351 404 14,700 1,800 Climbing FAA TRACON SMA TRACON (SMA)
Fri 07:54:00 PM 35.2772 -80.4475 57° Northeast 366 421 15,400 2,154 Climbing FAA TRACON SMA TRACON (SMA)
Fri 07:54:20 PM 35.2939 -80.4153 58° Northeast 364 419 16,100 2,049 Climbing FAA TRACON SMA TRACON (SMA)
Fri 07:54:41 PM 35.3153 -80.3747 57° Northeast 368 423 16,800 2,100 Climbing FAA TRACON SMA TRACON (SMA)
Fri 07:55:00 PM 35.3328 -80.3417 57° Northeast 371 427 17,500 1,950 Climbing FAA TRACON SMA TRACON (SMA)
Fri 07:55:21 PM 35.3506 -80.3083 57° Northeast 376 433 18,100 2,049 Climbing FAA TRACON SMA TRACON (SMA)
Fri 07:55:41 PM 35.3722 -80.2692 56° Northeast 380 437 18,900 2,308 Climbing FAA TRACON SMA TRACON (SMA)
Fri 07:56:00 PM 35.3908 -80.2325 58° Northeast 382 440 19,600 1,950 Climbing FAA TRACON SMA TRACON (SMA)
Fri 07:56:21 PM 35.4089 -80.1986 57° Northeast 386 444 20,200 1,857 Climbing FAA TRACON SMA TRACON (SMA)
Fri 07:56:42 PM 35.4281 -80.1528 63° Northeast 394 453 20,900 1,800 Climbing FAA TRACON SMA TRACON (SMA)
Fri 07:57:21 PM 35.4503 -80.0728 71° East 406 467 22,000 1,729 Climbing FAA TRACON SMA TRACON (SMA)
Fri 07:57:41 PM 35.4647 -80.0225 71° East 408 470 22,600 1,650 Climbing FAA TRACON SMA TRACON (SMA)
Fri 07:58:01 PM 35.4744 -79.9811 74° East 410 472 23,100 1,350 Climbing FAA TRACON SMA TRACON (SMA)
Fri 07:58:21 PM 35.4886 -79.9333 70° East 410 472 23,500 1,350 Climbing FAA TRACON SMA TRACON (SMA)
Fri 07:58:41 PM 35.4986 -79.8878 75° East 415 478 24,000 1,385 Climbing FAA TRACON SMA TRACON (SMA)
Fri 07:59:00 PM 35.5069 -79.8564 72° East 417 480 24,400 407 Climbing FAA TRACON SMA TRACON (SMA)
Fri 07:59:40 PM 35.5069 -79.8564 11° North 417 480 24,400 1,327 Level FAA TRACON SMA TRACON (SMA)
Fri 08:00:53 PM 35.5756 -79.5989 72° East 422 486 26,900 1,173 Climbing Washington Center
Fri 08:01:53 PM 35.6164 -79.4400 72° East 436 502 27,000 50 Climbing Washington Center
Fri 08:02:53 PM 35.6847 -79.3231 54° Northeast 428 493 27,000  Level Washington Center
Fri 08:03:53 PM 35.7853 -79.2458 32° Northeast 406 467 27,000  Level Washington Center
Fri 08:04:53 PM 35.8858 -79.1658 33° Northeast 412 474 27,000  Level Washington Center
Fri 08:05:53 PM 35.9861 -79.0883 32° Northeast 417 480 27,000  Level Washington Center
Fri 08:06:53 PM 36.0822 -79.0078 34° Northeast 422 486 27,000  Level Washington Center
Fri 08:07:53 PM 36.1783 -78.9319 32° Northeast 416 479 27,000  Level Washington Center
Fri 08:08:53 PM 36.2786 -78.8539 32° Northeast 416 479 27,000  Level Washington Center
Fri 08:09:53 PM 36.3767 -78.7728 34° Northeast 416 479 27,000  Level Washington Center
Fri 08:10:53 PM 36.4767 -78.6969 31° Northeast 421 484 27,000 -50 Level Washington Center
Fri 08:11:53 PM 36.5747 -78.6156 34° Northeast 421 484 26,900 -550 Descending Washington Center
Fri 08:12:53 PM 36.6706 -78.5389 33° Northeast 421 484 25,900 -950 Descending Washington Center
Fri 08:13:53 PM 36.7644 -78.4569 35° Northeast 415 478 25,000 -450 Descending Washington Center
Fri 08:14:53 PM 36.8600 -78.3800 33° Northeast 409 471 25,000 -450 Level Washington Center
Fri 08:15:53 PM 36.9558 -78.3053 32° Northeast 404 465 24,100 -950 Descending Washington Center
Fri 08:16:53 PM 37.0514 -78.2256 34° Northeast 404 465 23,100 -1,000 Descending Washington Center
Fri 08:17:53 PM 37.1450 -78.1453 34° Northeast 404 465 22,100 -550 Descending Washington Center
Fri 08:18:53 PM 37.2383 -78.0675 34° Northeast 404 465 22,000 -50 Descending Washington Center
Fri 08:19:53 PM 37.3294 -77.9947 32° Northeast 404 465 22,000  Level Washington Center
Fri 08:20:53 PM 37.4208 -77.9167 34° Northeast 404 465 22,000  Level Washington Center
Fri 08:21:53 PM 37.5161 -77.8383 33° Northeast 404 465 22,000 -200 Level Washington Center
Fri 08:22:53 PM 37.6153 -77.7756 27° Northeast 404 465 21,600 -1,200 Descending Washington Center
Fri 08:23:53 PM 37.7144 -77.7208 24° Northeast 393 452 19,600 -2,000 Descending Washington Center
Fri 08:24:53 PM 37.8092 -77.6631 26° Northeast 381 438 17,600 -2,000 Descending Washington Center
Fri 08:25:53 PM 37.9061 -77.6078 24° Northeast 381 438 15,600 -2,000 Descending Washington Center
Fri 08:26:53 PM 38.0008 -77.5497 26° Northeast 381 438 13,600 -1,950 Descending Washington Center
Fri 08:27:53 PM 38.0914 -77.4967 25° Northeast 376 433 11,700 -1,800 Descending Washington Center
Fri 08:28:53 PM 38.1631 -77.4561 24° Northeast 341 392 10,000 -850 Descending Washington Center
Fri 08:29:53 PM 38.2303 -77.4156 25° Northeast 297 342 10,000 -500 Level Washington Center
Fri 08:30:53 PM 38.3011 -77.4200 357° North 245 282 9,000 -1,300 Descending Washington Center
Fri 08:31:53 PM 38.3739 -77.4322 352° North 245 282 7,400 -1,450 Descending Washington Center
Fri 08:32:53 PM 38.4447 -77.4419 354° North 256 295 6,100 -1,350 Descending Washington Center
Fri 08:33:53 PM 38.5175 -77.4439 359° North 256 295 4,700 -1,050 Descending Washington Center
Fri 08:34:53 PM 38.5864 -77.4431 North 251 289 4,000 -750 Descending Washington Center
Fri 08:35:53 PM 38.6511 -77.4419 North 246 283 3,200 -789 Descending Washington Center
Fri 08:36:09 PM 38.6667 -77.4333 23° Northeast 220 253 3,000 -158 Descending Potomac TRACON
Fri 08:37:09 PM 38.7167 -77.4333 360° North 155 178 3,000  Level Potomac TRACON
Fri 08:38:09 PM 38.7667 -77.4333 360° North 153 176 3,000 -149 Level Potomac TRACON
Fri 08:39:10 PM 38.8000 -77.4333 360° North 156 180 2,700 -295 Descending Potomac TRACON

Login

Don't have an account? Register now (free) for customized features, flight alerts, and more!